Time;durP1;ratioP1;P1;durP2;ratioP2;P2;SDS_P1;SDS_P2;PMS_P1;PMS_P2;Temp;Humidity;BMP_temperature;BMP_pressure;BME280_temperature;BME280_humidity;BME280_pressure;Samples;Min_cycle;Max_cycle;Signal;HPM_P1;HPM_P2
2022/09/13 00:02:58;;;;;;;;;;;19.00;99.90;;;;;;8410940;28;19930;-72
2022/09/13 00:06:59;;;;;;;;;;;19.00;99.90;;;;;;8428037;28;19924;-73
2022/09/13 00:11:01;;;;;;;;;;;19.00;99.90;;;;;;8412399;28;19928;-72
2022/09/13 00:15:03;;;;;;;;;;;19.00;99.90;;;;;;8415564;28;19920;-73
2022/09/13 00:19:04;;;;;;;;;;;19.00;99.90;;;;;;8397489;28;19967;-73
2022/09/13 00:23:06;;;;;;;;;;;19.00;99.90;;;;;;8415476;28;19926;-73
2022/09/13 00:27:08;;;;;;;;;;;18.90;99.90;;;;;;8417815;28;19945;-73
2022/09/13 00:31:10;;;;;;;;;;;18.90;99.90;;;;;;8406219;28;20028;-73
2022/09/13 00:35:11;;;;;;;;;;;18.90;99.90;;;;;;8412355;28;20316;-73
2022/09/13 00:39:13;;;;;;;;;;;18.90;99.90;;;;;;8413502;28;19926;-73
2022/09/13 00:43:16;;;;;;;;;;;18.90;99.90;;;;;;8421292;28;19934;-73
2022/09/13 00:47:20;;;;;;;;;;;18.90;99.90;;;;;;8415338;28;19928;-73
2022/09/13 00:51:21;;;;;;;;;;;18.90;99.90;;;;;;8416831;28;19927;-73
2022/09/13 00:55:26;;;;;;;;;;;18.90;99.90;;;;;;8408691;28;20038;-73
2022/09/13 00:59:32;;;;;;;;;;;18.90;99.90;;;;;;8406558;28;19926;-73
2022/09/13 01:03:34;;;;;;;;;;;18.90;99.90;;;;;;8410898;28;19967;-73
2022/09/13 01:07:36;;;;;;;;;;;18.90;99.90;;;;;;8412070;28;20999;-73
2022/09/13 01:11:46;;;;;;;;;;;18.90;99.90;;;;;;8404856;28;19955;-73
2022/09/13 01:15:47;;;;;;;;;;;18.80;99.90;;;;;;8396493;28;19928;-72
2022/09/13 01:19:49;;;;;;;;;;;18.80;99.90;;;;;;8415492;28;19926;-72
2022/09/13 01:24:13;;;;;;;;;;;18.80;99.90;;;;;;8409660;28;19920;-72
2022/09/13 01:28:31;;;;;;;;;;;18.80;99.90;;;;;;8389754;28;20930;-72
2022/09/13 01:32:43;;;;;;;;;;;18.80;99.90;;;;;;8393821;28;19940;-72
2022/09/13 01:36:51;;;;;;;;;;;18.70;99.90;;;;;;8405397;28;19975;-73
2022/09/13 01:41:05;;;;;;;;;;;18.70;99.90;;;;;;8397946;28;19958;-72
2022/09/13 01:45:22;;;;;;;;;;;18.70;99.90;;;;;;8408405;28;19924;-72
2022/09/13 01:49:33;;;;;;;;;;;18.70;99.90;;;;;;8419456;28;20374;-73
2022/09/13 01:53:43;;;;;;;;;;;18.70;99.90;;;;;;8408150;28;20331;-73
2022/09/13 01:57:48;;;;;;;;;;;18.70;99.90;;;;;;8398372;28;20241;-72
2022/09/13 02:01:59;;;;;;;;;;;18.70;99.90;;;;;;8419507;28;19920;-73
2022/09/13 02:06:03;;;;;;;;;;;18.70;99.90;;;;;;8419675;28;19919;-72
2022/09/13 02:10:08;;;;;;;;;;;18.70;99.90;;;;;;8412145;28;19928;-72
2022/09/13 02:14:12;;;;;;;;;;;18.70;99.90;;;;;;8419358;28;19923;-72
2022/09/13 02:18:17;;;;;;;;;;;18.70;99.90;;;;;;8418839;28;19955;-72
2022/09/13 02:22:22;;;;;;;;;;;18.70;99.90;;;;;;8420622;28;20023;-72
2022/09/13 02:26:24;;;;;;;;;;;18.70;99.90;;;;;;8421499;28;20019;-73
2022/09/13 02:30:27;;;;;;;;;;;18.60;99.90;;;;;;8424565;28;20389;-73
2022/09/13 02:34:32;;;;;;;;;;;18.60;99.90;;;;;;8424589;28;19920;-73
2022/09/13 02:39:00;;;;;;;;;;;18.60;99.90;;;;;;8418664;28;20023;-72
2022/09/13 02:43:09;;;;;;;;;;;18.60;99.90;;;;;;8423728;28;19920;-73
2022/09/13 02:47:21;;;;;;;;;;;18.60;99.90;;;;;;8412794;28;20014;-72
2022/09/13 02:51:28;;;;;;;;;;;18.60;99.90;;;;;;8413539;28;19924;-73
2022/09/13 02:55:32;;;;;;;;;;;18.60;99.90;;;;;;8418962;28;19928;-72
2022/09/13 02:59:35;;;;;;;;;;;18.60;99.90;;;;;;8413948;28;19926;-72
2022/09/13 03:03:36;;;;;;;;;;;18.60;99.90;;;;;;8416884;28;20050;-73
2022/09/13 03:07:38;;;;;;;;;;;18.60;99.90;;;;;;8414957;28;19926;-73
2022/09/13 03:11:40;;;;;;;;;;;18.60;99.90;;;;;;8427594;28;20445;-73
2022/09/13 03:15:48;;;;;;;;;;;18.50;99.90;;;;;;8403882;28;19920;-73
2022/09/13 03:20:05;;;;;;;;;;;18.50;99.90;;;;;;8399153;28;20054;-72
2022/09/13 03:24:14;;;;;;;;;;;18.50;99.90;;;;;;8408928;28;19920;-72
2022/09/13 03:28:25;;;;;;;;;;;18.50;99.90;;;;;;8419196;28;19920;-73
2022/09/13 03:32:35;;;;;;;;;;;18.50;99.90;;;;;;8422369;28;19928;-72
2022/09/13 03:36:41;;;;;;;;;;;18.50;99.90;;;;;;8410585;28;20882;-73
2022/09/13 03:40:43;;;;;;;;;;;18.50;99.90;;;;;;8410946;28;19956;-72
2022/09/13 03:44:47;;;;;;;;;;;18.40;99.90;;;;;;8418924;28;19928;-72
2022/09/13 03:48:50;;;;;;;;;;;18.40;99.90;;;;;;8425543;28;20325;-73
2022/09/13 03:52:58;;;;;;;;;;;18.40;99.90;;;;;;8419800;28;19938;-73
2022/09/13 03:57:08;;;;;;;;;;;18.40;99.90;;;;;;8415610;28;19942;-73
2022/09/13 04:01:10;;;;;;;;;;;18.40;99.90;;;;;;8399819;28;19924;-73
2022/09/13 04:05:12;;;;;;;;;;;18.40;99.90;;;;;;8391708;28;20329;-73
2022/09/13 04:09:13;;;;;;;;;;;18.40;99.90;;;;;;8409006;28;19940;-73
2022/09/13 04:13:15;;;;;;;;;;;18.40;99.90;;;;;;8413173;28;19927;-73
2022/09/13 04:17:17;;;;;;;;;;;18.40;99.90;;;;;;8416064;28;19924;-72
2022/09/13 04:21:18;;;;;;;;;;;18.40;99.90;;;;;;8423599;28;19967;-73
2022/09/13 04:25:21;;;;;;;;;;;18.40;99.90;;;;;;8409108;28;19942;-73
2022/09/13 04:29:24;;;;;;;;;;;18.40;99.90;;;;;;8419566;28;19927;-72
2022/09/13 04:33:25;;;;;;;;;;;18.40;99.90;;;;;;8429891;28;19945;-72
2022/09/13 04:37:27;;;;;;;;;;;18.30;99.90;;;;;;8404831;28;20545;-73
2022/09/13 04:41:28;;;;;;;;;;;18.30;99.90;;;;;;8402571;28;19934;-73
2022/09/13 04:45:30;;;;;;;;;;;18.30;99.90;;;;;;8404040;28;20026;-73
2022/09/13 04:49:32;;;;;;;;;;;18.30;99.90;;;;;;8413456;28;19924;-72
2022/09/13 04:53:34;;;;;;;;;;;18.30;99.90;;;;;;8416803;28;20010;-73
2022/09/13 04:57:36;;;;;;;;;;;18.30;99.90;;;;;;8414078;28;19921;-72
2022/09/13 05:01:38;;;;;;;;;;;18.20;99.90;;;;;;8429387;28;19957;-73
2022/09/13 05:05:40;;;;;;;;;;;18.20;99.90;;;;;;8417006;28;20944;-73
2022/09/13 05:09:41;;;;;;;;;;;18.20;99.90;;;;;;8412521;28;19928;-73
2022/09/13 05:13:43;;;;;;;;;;;18.20;99.90;;;;;;8390353;28;20030;-73
2022/09/13 05:17:44;;;;;;;;;;;18.20;99.90;;;;;;8398440;28;19952;-73
2022/09/13 05:21:46;;;;;;;;;;;18.20;99.90;;;;;;8423890;28;19921;-73
2022/09/13 05:25:55;;;;;;;;;;;18.20;99.90;;;;;;8407423;28;19919;-74
2022/09/13 05:29:57;;;;;;;;;;;18.20;99.90;;;;;;8431423;28;20020;-73
2022/09/13 05:34:00;;;;;;;;;;;18.20;99.90;;;;;;8413810;28;19920;-72
2022/09/13 05:38:01;;;;;;;;;;;18.20;99.90;;;;;;8415964;28;19998;-72
2022/09/13 05:42:03;;;;;;;;;;;18.20;99.90;;;;;;8423418;28;20006;-73
2022/09/13 05:46:05;;;;;;;;;;;18.20;99.90;;;;;;8406816;28;19926;-73
2022/09/13 05:50:06;;;;;;;;;;;18.20;99.90;;;;;;8422847;28;19920;-73
2022/09/13 05:54:11;;;;;;;;;;;18.30;99.90;;;;;;8415170;28;19928;-73
2022/09/13 05:58:13;;;;;;;;;;;18.30;99.90;;;;;;8408529;28;19955;-72
2022/09/13 06:02:14;;;;;;;;;;;18.30;99.90;;;;;;8425327;28;19920;-73
2022/09/13 06:06:16;;;;;;;;;;;18.30;99.90;;;;;;8421141;28;19965;-73
2022/09/13 06:10:19;;;;;;;;;;;18.30;99.90;;;;;;8412701;28;19928;-73
2022/09/13 06:14:20;;;;;;;;;;;18.40;99.90;;;;;;8411650;28;20550;-73
2022/09/13 06:18:23;;;;;;;;;;;18.40;99.90;;;;;;8419049;28;19924;-72
2022/09/13 06:22:31;;;;;;;;;;;18.40;99.90;;;;;;8415527;28;19927;-73
2022/09/13 06:26:33;;;;;;;;;;;18.40;99.90;;;;;;8408945;28;20471;-74
2022/09/13 06:30:35;;;;;;;;;;;18.50;99.90;;;;;;8412925;28;20323;-73
2022/09/13 06:34:37;;;;;;;;;;;18.50;99.90;;;;;;8396540;28;19924;-73
2022/09/13 06:38:39;;;;;;;;;;;18.60;99.90;;;;;;8400835;28;19919;-73
2022/09/13 06:42:40;;;;;;;;;;;18.60;99.90;;;;;;8428057;28;19963;-73
2022/09/13 06:46:42;;;;;;;;;;;18.70;99.90;;;;;;8429162;28;19926;-73
2022/09/13 06:50:44;;;;;;;;;;;18.70;99.90;;;;;;8430160;28;20328;-73
2022/09/13 06:54:46;;;;;;;;;;;18.80;99.90;;;;;;8430937;28;19920;-73
2022/09/13 06:58:49;;;;;;;;;;;18.90;99.90;;;;;;8426027;28;19928;-73
2022/09/13 07:02:51;;;;;;;;;;;18.90;99.90;;;;;;8425618;28;19939;-72
2022/09/13 07:06:53;;;;;;;;;;;19.00;99.90;;;;;;8406690;28;19924;-72
2022/09/13 07:10:56;;;;;;;;;;;19.00;99.90;;;;;;8389978;28;19926;-72
2022/09/13 07:14:57;;;;;;;;;;;19.10;99.90;;;;;;8410601;28;19963;-73
2022/09/13 07:19:00;;;;;;;;;;;19.20;99.90;;;;;;8405369;28;19930;-73
2022/09/13 07:23:02;;;;;;;;;;;19.20;99.90;;;;;;8405908;28;20022;-73
2022/09/13 07:27:03;;;;;;;;;;;19.20;99.90;;;;;;8390697;28;19938;-72
2022/09/13 07:31:10;;;;;;;;;;;19.30;99.90;;;;;;8400834;28;19920;-73
2022/09/13 07:35:11;;;;;;;;;;;19.40;99.90;;;;;;8403828;28;19948;-73
2022/09/13 07:39:14;;;;;;;;;;;19.40;99.90;;;;;;8408025;28;19928;-73
2022/09/13 07:43:19;;;;;;;;;;;19.50;99.90;;;;;;8401031;28;19928;-72
2022/09/13 07:47:21;;;;;;;;;;;19.60;99.90;;;;;;8407732;28;19920;-73
2022/09/13 07:51:24;;;;;;;;;;;19.70;99.90;;;;;;8401577;28;19928;-73
2022/09/13 07:55:25;;;;;;;;;;;19.70;99.90;;;;;;8389197;28;19924;-73
2022/09/13 07:59:27;;;;;;;;;;;19.80;99.90;;;;;;8406931;28;20305;-74
2022/09/13 08:03:31;;;;;;;;;;;19.90;99.90;;;;;;8394877;28;20375;-73
2022/09/13 08:07:33;;;;;;;;;;;20.00;99.90;;;;;;8403136;28;19970;-73
2022/09/13 08:11:36;;;;;;;;;;;20.10;99.90;;;;;;8405207;28;19948;-73
2022/09/13 08:15:37;;;;;;;;;;;20.10;99.90;;;;;;8407693;28;19967;-74
2022/09/13 08:19:39;;;;;;;;;;;20.20;99.90;;;;;;8402193;28;20299;-73
2022/09/13 08:23:41;;;;;;;;;;;20.40;99.90;;;;;;8388653;28;20723;-73
2022/09/13 08:27:42;;;;;;;;;;;20.40;99.90;;;;;;8402790;28;19970;-73
2022/09/13 08:31:44;;;;;;;;;;;20.50;99.90;;;;;;8406802;28;19928;-73
2022/09/13 08:35:50;;;;;;;;;;;20.60;99.90;;;;;;8402138;28;19924;-73
2022/09/13 08:39:52;;;;;;;;;;;20.70;99.90;;;;;;8399274;28;19924;-73
2022/09/13 08:43:53;;;;;;;;;;;20.70;99.90;;;;;;8404909;28;19955;-73
2022/09/13 08:47:57;;;;;;;;;;;20.70;99.90;;;;;;8404887;28;19935;-72
2022/09/13 08:52:10;;;;;;;;;;;20.70;99.90;;;;;;8399615;28;20414;-73
2022/09/13 08:56:18;;;;;;;;;;;20.70;99.90;;;;;;8405129;28;19924;-73
2022/09/13 09:00:29;;;;;;;;;;;20.70;99.90;;;;;;8401643;28;19924;-73
2022/09/13 09:04:37;;;;;;;;;;;20.80;99.90;;;;;;8390618;28;19999;-73
2022/09/13 09:08:48;;;;;;;;;;;20.90;99.90;;;;;;8406985;28;19931;-73
2022/09/13 09:12:53;;;;;;;;;;;21.00;99.90;;;;;;8403278;28;19931;-73
2022/09/13 09:16:56;;;;;;;;;;;21.10;99.90;;;;;;8398393;28;19931;-73
2022/09/13 09:20:59;;;;;;;;;;;21.20;99.90;;;;;;8385327;28;20024;-73
2022/09/13 09:25:02;;;;;;;;;;;21.20;99.90;;;;;;8399729;28;20507;-72
2022/09/13 09:29:14;;;;;;;;;;;21.10;99.90;;;;;;8385962;28;19920;-73
2022/09/13 09:33:36;;;;;;;;;;;21.10;99.90;;;;;;8404015;28;19966;-73
2022/09/13 09:37:40;;;;;;;;;;;21.10;99.90;;;;;;8400897;28;19938;-73
2022/09/13 09:41:42;;;;;;;;;;;21.10;99.90;;;;;;8396799;28;20008;-74
2022/09/13 09:45:45;;;;;;;;;;;21.20;99.90;;;;;;8384650;28;19928;-73
2022/09/13 09:50:08;;;;;;;;;;;21.20;99.90;;;;;;8403869;28;20331;-72
2022/09/13 09:54:11;;;;;;;;;;;21.20;99.90;;;;;;8404917;28;19934;-72
2022/09/13 09:58:17;;;;;;;;;;;21.20;99.90;;;;;;8399135;28;19981;-73
2022/09/13 10:02:20;;;;;;;;;;;21.40;99.90;;;;;;8395888;28;19967;-74
2022/09/13 10:06:24;;;;;;;;;;;21.50;99.90;;;;;;8394226;28;19920;-72
2022/09/13 10:10:32;;;;;;;;;;;21.50;99.90;;;;;;8402442;28;21075;-72
2022/09/13 10:14:40;;;;;;;;;;;21.50;99.90;;;;;;8399524;28;19927;-73
2022/09/13 10:18:42;;;;;;;;;;;21.60;99.90;;;;;;8406573;28;19930;-73
2022/09/13 10:23:05;;;;;;;;;;;21.60;99.90;;;;;;8409680;28;19928;-73
2022/09/13 10:27:18;;;;;;;;;;;21.70;99.90;;;;;;8406299;28;19924;-73
2022/09/13 10:31:20;;;;;;;;;;;21.70;99.90;;;;;;8403649;28;19930;-73
2022/09/13 10:35:22;;;;;;;;;;;21.80;99.90;;;;;;8407420;28;19920;-73
2022/09/13 10:39:24;;;;;;;;;;;21.90;99.90;;;;;;8407808;28;19933;-73
2022/09/13 10:43:27;;;;;;;;;;;21.90;99.90;;;;;;8404991;28;19946;-73
2022/09/13 10:47:36;;;;;;;;;;;22.00;99.90;;;;;;8402587;28;19924;-72
2022/09/13 10:51:38;;;;;;;;;;;22.10;99.90;;;;;;8404234;28;19924;-73
2022/09/13 10:55:41;;;;;;;;;;;22.20;99.90;;;;;;8405067;28;19974;-72
2022/09/13 10:59:51;;;;;;;;;;;22.40;99.90;;;;;;8405590;28;19931;-73
2022/09/13 11:03:55;;;;;;;;;;;22.60;99.90;;;;;;8410106;28;20087;-73
2022/09/13 11:08:20;;;;;;;;;;;22.70;99.90;;;;;;8406790;28;20013;-73
2022/09/13 11:12:26;;;;;;;;;;;22.70;99.90;;;;;;8408726;28;19924;-73
2022/09/13 11:16:28;;;;;;;;;;;22.80;99.90;;;;;;8402839;28;19930;-73
2022/09/13 11:20:29;;;;;;;;;;;22.80;99.90;;;;;;8407693;28;19925;-73
2022/09/13 11:24:50;;;;;;;;;;;22.90;99.90;;;;;;8394942;28;20332;-73
2022/09/13 11:29:21;;;;;;;;;;;22.90;99.90;;;;;;8403066;28;20003;-73
2022/09/13 11:33:27;;;;;;;;;;;22.90;99.90;;;;;;8341484;28;19931;-73
2022/09/13 11:37:42;;;;;;;;;;;23.00;99.90;;;;;;8389282;28;19926;-74
2022/09/13 11:42:03;;;;;;;;;;;22.90;99.90;;;;;;8402205;28;20018;-73
2022/09/13 11:46:17;;;;;;;;;;;23.00;99.90;;;;;;8409846;28;19920;-73
2022/09/13 11:50:32;;;;;;;;;;;23.10;99.90;;;;;;8404244;28;19968;-73
2022/09/13 11:54:33;;;;;;;;;;;23.10;99.90;;;;;;8409152;28;20003;-73
2022/09/13 11:58:38;;;;;;;;;;;22.90;99.90;;;;;;8404397;28;20306;-73
2022/09/13 12:02:59;;;;;;;;;;;22.80;99.90;;;;;;8404904;28;19920;-73
2022/09/13 12:07:03;;;;;;;;;;;22.70;99.90;;;;;;8385765;28;19934;-73
2022/09/13 12:11:10;;;;;;;;;;;22.70;99.90;;;;;;8400401;28;20003;-73
2022/09/13 12:15:36;;;;;;;;;;;22.70;99.90;;;;;;8392092;28;19959;-73
2022/09/13 12:19:38;;;;;;;;;;;22.90;99.90;;;;;;8395031;28;19927;-74
2022/09/13 12:23:52;;;;;;;;;;;23.00;99.90;;;;;;8403684;28;19921;-73
2022/09/13 12:27:58;;;;;;;;;;;23.10;99.90;;;;;;8407329;28;20440;-73
2022/09/13 12:32:02;;;;;;;;;;;23.20;99.90;;;;;;8402630;28;19927;-74
2022/09/13 12:36:24;;;;;;;;;;;23.20;99.90;;;;;;8393206;28;19920;-73
2022/09/13 12:40:52;;;;;;;;;;;23.30;99.90;;;;;;8383836;28;19930;-73
2022/09/13 12:45:18;;;;;;;;;;;23.40;99.90;;;;;;8401808;28;19939;-73
2022/09/13 12:49:39;;;;;;;;;;;23.50;99.90;;;;;;8397073;28;19924;-73
2022/09/13 12:54:14;;;;;;;;;;;23.50;99.90;;;;;;8404298;28;19963;-73
2022/09/13 12:58:34;;;;;;;;;;;23.50;99.90;;;;;;8373657;28;20374;-73
2022/09/13 13:02:41;;;;;;;;;;;23.60;99.90;;;;;;8402495;28;20421;-72
2022/09/13 13:06:43;;;;;;;;;;;23.50;99.90;;;;;;8399054;28;19963;-73
2022/09/13 13:10:58;;;;;;;;;;;23.50;99.90;;;;;;8404519;28;19930;-73
2022/09/13 13:15:20;;;;;;;;;;;23.50;99.90;;;;;;8397019;28;20012;-73
2022/09/13 13:19:32;;;;;;;;;;;23.60;99.90;;;;;;8359857;28;20405;-73
2022/09/13 13:23:38;;;;;;;;;;;23.70;99.90;;;;;;8386393;28;19930;-73
2022/09/13 13:27:40;;;;;;;;;;;23.70;99.90;;;;;;8388988;28;20002;-74
2022/09/13 13:32:02;;;;;;;;;;;23.70;99.90;;;;;;8386915;28;24281;-73
2022/09/13 13:36:20;;;;;;;;;;;23.70;99.90;;;;;;8403080;28;19924;-73
2022/09/13 13:40:24;;;;;;;;;;;23.80;99.90;;;;;;8401890;28;19921;-74
2022/09/13 13:44:26;;;;;;;;;;;23.80;99.90;;;;;;8401479;28;19924;-73
2022/09/13 13:48:35;;;;;;;;;;;23.90;99.90;;;;;;8402715;28;19966;-73
2022/09/13 13:52:38;;;;;;;;;;;24.00;99.90;;;;;;8407062;28;19924;-73
2022/09/13 13:56:45;;;;;;;;;;;24.00;99.90;;;;;;8397046;28;19920;-73
2022/09/13 14:00:49;;;;;;;;;;;24.10;99.90;;;;;;8391365;28;20011;-74
2022/09/13 14:05:02;;;;;;;;;;;24.20;99.90;;;;;;8410292;28;19924;-74
2022/09/13 14:09:07;;;;;;;;;;;24.20;99.90;;;;;;8405870;28;21516;-73
2022/09/13 14:13:11;;;;;;;;;;;24.40;99.90;;;;;;8407131;28;20015;-73
2022/09/13 14:17:30;;;;;;;;;;;24.40;99.90;;;;;;8406028;28;20040;-73
2022/09/13 14:21:32;;;;;;;;;;;24.30;99.90;;;;;;8409309;28;19920;-74
2022/09/13 14:25:34;;;;;;;;;;;24.20;99.90;;;;;;8407360;28;19979;-74
2022/09/13 14:29:35;;;;;;;;;;;24.10;99.90;;;;;;8404637;28;20014;-74
2022/09/13 14:33:37;;;;;;;;;;;24.00;99.90;;;;;;8404804;28;19928;-73
2022/09/13 14:37:39;;;;;;;;;;;23.90;99.90;;;;;;8407700;28;20043;-74
2022/09/13 14:41:40;;;;;;;;;;;23.80;99.90;;;;;;8399105;28;19952;-74
2022/09/13 14:45:44;;;;;;;;;;;23.80;99.90;;;;;;8394880;28;19920;-74
2022/09/13 14:49:49;;;;;;;;;;;23.80;99.90;;;;;;8404590;28;19963;-73
2022/09/13 14:53:54;;;;;;;;;;;23.90;99.90;;;;;;8408509;28;20368;-73
2022/09/13 14:57:58;;;;;;;;;;;24.00;99.90;;;;;;8406610;28;19926;-73
2022/09/13 15:02:14;;;;;;;;;;;24.00;99.90;;;;;;8387602;28;19961;-74
2022/09/13 15:06:21;;;;;;;;;;;23.90;99.90;;;;;;8405778;28;19924;-73
2022/09/13 15:10:24;;;;;;;;;;;23.80;99.90;;;;;;8385299;28;19954;-74
2022/09/13 15:14:26;;;;;;;;;;;23.70;99.90;;;;;;8406042;28;19920;-73
2022/09/13 15:18:30;;;;;;;;;;;23.70;99.90;;;;;;8406067;28;19920;-73
2022/09/13 15:22:41;;;;;;;;;;;23.60;99.90;;;;;;8390059;28;19921;-73
2022/09/13 15:26:43;;;;;;;;;;;23.50;99.90;;;;;;8406002;28;19920;-73
2022/09/13 15:30:44;;;;;;;;;;;23.50;99.90;;;;;;8403571;28;19924;-73
2022/09/13 15:34:49;;;;;;;;;;;23.40;99.90;;;;;;8403142;28;19924;-73
2022/09/13 15:39:06;;;;;;;;;;;23.30;99.90;;;;;;8404756;28;19928;-73
2022/09/13 15:43:08;;;;;;;;;;;23.30;99.90;;;;;;8405810;28;19924;-73
2022/09/13 15:47:12;;;;;;;;;;;23.20;99.90;;;;;;8403958;28;19920;-74
2022/09/13 15:51:14;;;;;;;;;;;23.20;99.90;;;;;;8406698;28;19943;-73
2022/09/13 15:55:15;;;;;;;;;;;23.10;99.90;;;;;;8381787;28;19920;-73
2022/09/13 15:59:19;;;;;;;;;;;23.00;99.90;;;;;;8386459;28;19924;-73
2022/09/13 16:03:20;;;;;;;;;;;22.90;99.90;;;;;;8396368;28;20328;-73
2022/09/13 16:07:23;;;;;;;;;;;22.90;99.90;;;;;;8397964;28;19934;-73
2022/09/13 16:11:25;;;;;;;;;;;22.90;99.90;;;;;;8379954;28;19931;-73
2022/09/13 16:15:27;;;;;;;;;;;22.90;99.90;;;;;;8390044;28;19924;-74
2022/09/13 16:19:28;;;;;;;;;;;22.80;99.90;;;;;;8397441;28;19924;-74
2022/09/13 16:23:30;;;;;;;;;;;22.80;99.90;;;;;;8381556;28;19920;-74
2022/09/13 16:27:32;;;;;;;;;;;22.70;99.90;;;;;;8381689;28;19927;-73
2022/09/13 16:36:59;;;;;;;;;;;22.60;99.90;;;;;;8398786;28;19923;-74
2022/09/13 16:41:03;;;;;;;;;;;22.50;99.90;;;;;;8398930;28;20500;-73
2022/09/13 16:45:05;;;;;;;;;;;22.50;99.90;;;;;;8399516;28;19930;-73
2022/09/13 16:49:07;;;;;;;;;;;22.40;99.90;;;;;;8386710;28;19934;-74
2022/09/13 16:53:08;;;;;;;;;;;22.40;99.90;;;;;;8399212;28;19925;-73
2022/09/13 16:57:12;;;;;;;;;;;22.30;99.90;;;;;;8382356;28;20408;-73
2022/09/13 17:01:15;;;;;;;;;;;22.20;99.90;;;;;;8399966;28;20280;-73
2022/09/13 17:05:17;;;;;;;;;;;22.10;99.90;;;;;;8400208;28;19951;-74
2022/09/13 17:09:21;;;;;;;;;;;22.00;99.90;;;;;;8403187;28;20349;-73
2022/09/13 17:13:23;;;;;;;;;;;22.00;99.90;;;;;;8401493;28;19920;-73
2022/09/13 17:17:24;;;;;;;;;;;21.90;99.90;;;;;;8399032;28;19928;-73
2022/09/13 17:21:27;;;;;;;;;;;21.80;99.90;;;;;;8399366;28;19926;-73
2022/09/13 17:25:28;;;;;;;;;;;21.70;99.90;;;;;;8400767;28;19975;-73
2022/09/13 17:29:30;;;;;;;;;;;21.70;99.90;;;;;;8402391;28;19920;-73
2022/09/13 17:33:32;;;;;;;;;;;21.60;99.90;;;;;;8402171;28;19920;-74
2022/09/13 17:37:33;;;;;;;;;;;21.50;99.90;;;;;;8399844;28;19930;-73
2022/09/13 17:41:35;;;;;;;;;;;21.40;99.90;;;;;;8400648;28;19963;-74
2022/09/13 17:45:36;;;;;;;;;;;21.40;99.90;;;;;;8403466;28;20018;-74
2022/09/13 17:49:38;;;;;;;;;;;21.30;99.90;;;;;;8405629;28;20011;-74
2022/09/13 17:53:41;;;;;;;;;;;21.20;99.90;;;;;;8396681;28;20007;-73
2022/09/13 17:57:46;;;;;;;;;;;21.20;99.90;;;;;;8397845;28;19920;-74
2022/09/13 18:01:49;;;;;;;;;;;21.10;99.90;;;;;;8385864;28;19927;-73
2022/09/13 18:05:54;;;;;;;;;;;21.10;99.90;;;;;;8402592;28;20335;-73
2022/09/13 18:09:56;;;;;;;;;;;21.00;99.90;;;;;;8400306;28;19930;-73
2022/09/13 18:13:58;;;;;;;;;;;21.00;99.90;;;;;;8396909;28;20023;-73
2022/09/13 18:18:00;;;;;;;;;;;20.90;99.90;;;;;;8398660;28;19920;-73
2022/09/13 18:22:01;;;;;;;;;;;20.80;99.90;;;;;;8401363;28;20233;-74
2022/09/13 18:26:04;;;;;;;;;;;20.80;99.90;;;;;;8399001;28;19928;-73
2022/09/13 18:30:11;;;;;;;;;;;20.70;99.90;;;;;;8396495;28;19920;-73
2022/09/13 18:34:13;;;;;;;;;;;20.70;99.90;;;;;;8396581;28;19982;-73
2022/09/13 18:38:15;;;;;;;;;;;20.60;99.90;;;;;;8410351;28;19938;-73
2022/09/13 18:42:16;;;;;;;;;;;20.60;99.90;;;;;;8401600;28;19950;-73
2022/09/13 18:46:20;;;;;;;;;;;20.50;99.90;;;;;;8404288;28;20378;-73
2022/09/13 18:50:22;;;;;;;;;;;20.50;99.90;;;;;;8402274;28;19924;-73
2022/09/13 18:54:23;;;;;;;;;;;20.50;99.90;;;;;;8382960;28;19920;-73
2022/09/13 18:58:25;;;;;;;;;;;20.40;99.90;;;;;;8397656;28;19935;-73
2022/09/13 19:02:26;;;;;;;;;;;20.40;99.90;;;;;;8401531;28;19919;-73
2022/09/13 19:06:29;;;;;;;;;;;20.30;99.90;;;;;;8402755;28;19920;-73
2022/09/13 19:10:31;;;;;;;;;;;20.30;99.90;;;;;;8405024;28;19927;-73
2022/09/13 19:14:33;;;;;;;;;;;20.20;99.90;;;;;;8408305;28;19920;-73
2022/09/13 19:18:35;;;;;;;;;;;20.20;99.90;;;;;;8402179;28;20205;-73
2022/09/13 19:22:37;;;;;;;;;;;20.20;99.90;;;;;;8406313;28;19926;-73
2022/09/13 19:26:39;;;;;;;;;;;20.10;99.90;;;;;;8398745;28;19924;-73
2022/09/13 19:30:41;;;;;;;;;;;20.10;99.90;;;;;;8407456;28;19931;-73
2022/09/13 19:34:42;;;;;;;;;;;20.10;99.90;;;;;;8399910;28;19971;-73
2022/09/13 19:38:44;;;;;;;;;;;20.00;99.90;;;;;;8396207;28;19946;-73
2022/09/13 19:42:45;;;;;;;;;;;20.00;99.90;;;;;;8395194;28;19924;-73
2022/09/13 19:46:47;;;;;;;;;;;20.00;99.90;;;;;;8395285;28;19921;-73
2022/09/13 19:50:49;;;;;;;;;;;20.00;99.90;;;;;;8394838;28;19920;-74
2022/09/13 19:54:51;;;;;;;;;;;19.90;99.90;;;;;;8400444;28;20379;-73
2022/09/13 19:58:52;;;;;;;;;;;19.90;99.90;;;;;;8387743;28;20408;-73
2022/09/13 20:02:54;;;;;;;;;;;19.90;99.90;;;;;;8375502;28;19924;-73
2022/09/13 20:06:56;;;;;;;;;;;19.90;99.90;;;;;;8398009;28;19924;-73
2022/09/13 20:10:57;;;;;;;;;;;19.80;99.90;;;;;;8394521;28;19975;-73
2022/09/13 20:14:59;;;;;;;;;;;19.80;99.90;;;;;;8401325;28;20019;-73
2022/09/13 20:19:01;;;;;;;;;;;19.80;99.90;;;;;;8398806;28;20443;-74
2022/09/13 20:23:11;;;;;;;;;;;19.80;99.90;;;;;;8402421;28;19924;-73
2022/09/13 20:27:12;;;;;;;;;;;19.80;99.90;;;;;;8391686;28;20022;-74
2022/09/13 20:31:14;;;;;;;;;;;19.70;99.90;;;;;;8380634;28;19927;-73
2022/09/13 20:40:19;;;;;;;;;;;19.60;99.90;;;;;;8387042;28;19981;-74
2022/09/13 20:44:21;;;;;;;;;;;19.60;99.90;;;;;;8369917;28;19981;-73
2022/09/13 20:48:23;;;;;;;;;;;19.50;99.90;;;;;;8374107;28;19920;-74
2022/09/13 20:52:25;;;;;;;;;;;19.50;99.90;;;;;;8384103;28;20019;-73
2022/09/13 20:56:27;;;;;;;;;;;19.50;99.90;;;;;;8380800;28;20379;-73
2022/09/13 21:00:29;;;;;;;;;;;19.40;99.90;;;;;;8380244;28;19943;-73
2022/09/13 21:04:31;;;;;;;;;;;19.40;99.90;;;;;;8401595;28;20412;-73
2022/09/13 21:08:42;;;;;;;;;;;19.30;99.90;;;;;;8397645;28;20710;-73
2022/09/13 21:12:43;;;;;;;;;;;19.30;99.90;;;;;;8398732;28;20008;-73
2022/09/13 21:16:45;;;;;;;;;;;19.30;99.90;;;;;;8409046;28;20306;-74
2022/09/13 21:20:57;;;;;;;;;;;19.20;99.90;;;;;;8404653;28;19977;-73
2022/09/13 21:24:58;;;;;;;;;;;19.20;99.90;;;;;;8402252;28;20117;-73
2022/09/13 21:29:00;;;;;;;;;;;19.20;99.90;;;;;;8403828;28;19920;-73
2022/09/13 21:33:01;;;;;;;;;;;19.10;99.90;;;;;;8398913;28;20375;-73
2022/09/13 21:37:03;;;;;;;;;;;19.00;99.90;;;;;;8409681;28;19920;-73
2022/09/13 21:41:06;;;;;;;;;;;19.00;99.90;;;;;;8382917;28;19928;-74
2022/09/13 21:45:08;;;;;;;;;;;19.00;99.90;;;;;;8402669;28;20023;-73
2022/09/13 21:49:11;;;;;;;;;;;18.90;99.90;;;;;;8407012;28;20023;-73
2022/09/13 21:58:15;;;;;;;;;;;18.80;99.90;;;;;;8404503;28;19939;-73
2022/09/13 22:02:17;;;;;;;;;;;18.80;99.90;;;;;;8400912;28;19958;-73
2022/09/13 22:06:19;;;;;;;;;;;18.80;99.90;;;;;;8404563;28;19920;-73
2022/09/13 22:10:21;;;;;;;;;;;18.70;99.90;;;;;;8380039;28;19930;-73
2022/09/13 22:14:23;;;;;;;;;;;18.70;99.90;;;;;;8402843;28;20007;-73
2022/09/13 22:18:24;;;;;;;;;;;18.70;99.90;;;;;;8385047;28;20241;-73
2022/09/13 22:22:26;;;;;;;;;;;18.70;99.90;;;;;;8402089;28;19972;-73
2022/09/13 22:26:29;;;;;;;;;;;18.70;99.90;;;;;;8403198;28;20410;-73
2022/09/13 22:30:32;;;;;;;;;;;18.60;99.90;;;;;;8404802;28;20300;-73
2022/09/13 22:34:34;;;;;;;;;;;18.60;99.90;;;;;;8384995;28;19920;-73
2022/09/13 22:38:37;;;;;;;;;;;18.60;99.90;;;;;;8400583;28;19920;-73
2022/09/13 22:47:41;;;;;;;;;;;18.50;99.90;;;;;;8393155;28;19951;-73
2022/09/13 22:51:44;;;;;;;;;;;18.40;99.90;;;;;;8397684;28;19934;-74
2022/09/13 22:55:46;;;;;;;;;;;18.40;99.90;;;;;;8396251;28;20056;-72
2022/09/13 23:04:50;;;;;;;;;;;18.40;99.90;;;;;;8395816;28;19939;-73
2022/09/13 23:08:53;;;;;;;;;;;18.40;99.90;;;;;;8407477;28;19935;-73
2022/09/13 23:12:56;;;;;;;;;;;18.40;99.90;;;;;;8408971;28;19920;-73
2022/09/13 23:16:58;;;;;;;;;;;18.40;99.90;;;;;;8397305;28;19924;-73
2022/09/13 23:21:00;;;;;;;;;;;18.40;99.90;;;;;;8394107;28;19928;-73
2022/09/13 23:25:02;;;;;;;;;;;18.30;99.90;;;;;;8386297;28;19926;-74
2022/09/13 23:29:04;;;;;;;;;;;18.30;99.90;;;;;;8399227;28;19926;-73
2022/09/13 23:33:07;;;;;;;;;;;18.20;99.90;;;;;;8410963;28;19920;-73
2022/09/13 23:37:08;;;;;;;;;;;18.20;99.90;;;;;;8407425;28;19938;-72
2022/09/13 23:41:10;;;;;;;;;;;18.20;99.90;;;;;;8407145;28;19926;-73
2022/09/13 23:45:12;;;;;;;;;;;18.20;99.90;;;;;;8405427;28;19926;-73
2022/09/13 23:49:14;;;;;;;;;;;18.10;99.90;;;;;;8413557;28;19931;-73
2022/09/13 23:53:16;;;;;;;;;;;18.10;99.90;;;;;;8386481;28;19961;-73
2022/09/13 23:57:19;;;;;;;;;;;18.10;99.90;;;;;;8414168;28;19927;-73
